Time;durP1;ratioP1;P1;durP2;ratioP2;P2;SDS_P1;SDS_P2;PMS_P1;PMS_P2;Temp;Humidity;BMP_temperature;BMP_pressure;BME280_temperature;BME280_humidity;BME280_pressure;Samples;Min_cycle;Max_cycle;Signal;HPM_P1;HPM_P2
2021/09/17 00:01:23;;;;;;;17.95;13.68;;;;;;;14.48;100.00;92901.54;1710575;81;21111;-91
2021/09/17 00:03:49;;;;;;;16.97;12.98;;;;;;;14.46;100.00;92912.92;1714334;81;21075;-93
2021/09/17 00:06:18;;;;;;;16.73;12.65;;;;;;;14.49;100.00;92905.26;1736753;78;21051;-91
2021/09/17 00:08:44;;;;;;;22.45;13.53;;;;;;;14.56;100.00;92894.73;1741997;80;20979;-93
2021/09/17 00:11:12;;;;;;;17.60;12.05;;;;;;;14.64;100.00;92887.09;1745281;79;21027;-92
2021/09/17 00:13:41;;;;;;;16.57;11.00;;;;;;;14.69;100.00;92878.34;1750003;80;21022;-87
2021/09/17 00:16:07;;;;;;;16.62;12.18;;;;;;;14.72;100.00;92880.21;1744005;80;21014;-92
2021/09/17 00:18:35;;;;;;;13.38;9.63;;;;;;;14.75;100.00;92876.61;1724946;81;21538;-91
2021/09/17 00:21:04;;;;;;;12.28;9.05;;;;;;;14.74;100.00;92862.74;1729078;80;21046;-93
2021/09/17 00:23:33;;;;;;;11.53;8.33;;;;;;;14.77;100.00;92859.91;1737531;78;21193;-91
2021/09/17 00:26:01;;;;;;;13.03;8.98;;;;;;;14.81;100.00;92861.94;1738067;80;21533;-88
2021/09/17 00:28:30;;;;;;;13.10;8.73;;;;;;;14.84;100.00;92849.36;1707134;80;21054;-94
2021/09/17 00:30:57;;;;;;;16.93;9.63;;;;;;;14.85;100.00;92854.23;1749185;79;21070;-90
2021/09/17 00:33:23;;;;;;;15.98;9.00;;;;;;;14.84;100.00;92847.23;1750796;80;21093;-90
2021/09/17 00:35:50;;;;;;;11.18;8.40;;;;;;;14.81;100.00;92837.30;1738689;79;21002;-91
2021/09/17 00:38:16;;;;;;;12.53;9.90;;;;;;;14.78;100.00;92832.72;1733369;79;21054;-90
2021/09/17 00:40:43;;;;;;;10.98;8.95;;;;;;;14.78;100.00;92829.98;1692445;82;21120;-91
2021/09/17 00:43:11;;;;;;;15.55;10.45;;;;;;;14.77;100.00;92831.17;1711346;81;21008;-89
2021/09/17 00:45:39;;;;;;;13.70;8.50;;;;;;;14.76;100.00;92832.98;1728339;81;21081;-92
2021/09/17 00:48:06;;;;;;;12.13;8.83;;;;;;;14.75;100.00;92831.45;1714085;81;21558;-88
2021/09/17 00:50:34;;;;;;;13.60;8.93;;;;;;;14.75;100.00;92829.48;1694639;81;21096;-89
2021/09/17 00:53:01;;;;;;;17.52;10.05;;;;;;;14.77;100.00;92827.67;1685521;83;21009;-93
2021/09/17 00:55:28;;;;;;;13.20;9.53;;;;;;;14.76;100.00;92820.06;1778776;78;21030;-91
2021/09/17 00:57:56;;;;;;;12.78;9.23;;;;;;;14.78;100.00;92819.04;1739007;79;21048;-94
2021/09/17 01:00:22;;;;;;;13.68;9.98;;;;;;;14.78;100.00;92814.94;1743424;80;21073;-89
2021/09/17 01:02:49;;;;;;;14.90;10.38;;;;;;;14.78;100.00;92809.46;1753610;80;21148;-93
2021/09/17 01:05:15;;;;;;;12.95;8.63;;;;;;;14.79;100.00;92808.86;1755620;80;21300;-91
2021/09/17 01:07:44;;;;;;;12.95;9.05;;;;;;;14.77;100.00;92799.70;1753271;80;21199;-91
2021/09/17 01:10:11;;;;;;;11.20;8.25;;;;;;;14.77;100.00;92796.20;1765225;79;20962;-91
2021/09/17 01:12:38;;;;;;;11.75;8.25;;;;;;;14.76;100.00;92792.70;1750910;79;21588;-89
2021/09/17 01:15:07;;;;;;;12.05;8.55;;;;;;;14.75;100.00;92798.02;1760102;79;21117;-91
2021/09/17 01:17:37;;;;;;;13.30;8.40;;;;;;;14.75;100.00;92799.38;1746907;80;21047;-90
2021/09/17 01:20:05;;;;;;;15.75;8.83;;;;;;;14.76;100.00;92792.70;1754443;79;21058;-91
2021/09/17 01:22:31;;;;;;;11.65;8.35;;;;;;;14.81;100.00;92785.30;1754566;80;21005;-91
2021/09/17 01:24:59;;;;;;;12.23;8.20;;;;;;;14.88;100.00;92800.75;1731720;80;21017;-87
2021/09/17 01:27:28;;;;;;;13.08;8.30;;;;;;;14.87;100.00;92792.98;1739937;80;21088;-92
2021/09/17 01:29:55;;;;;;;13.28;8.98;;;;;;;14.90;100.00;92792.12;1724185;81;21229;-91
2021/09/17 01:32:23;;;;;;;13.70;9.05;;;;;;;14.92;100.00;92794.56;1672010;81;21545;-90
2021/09/17 01:34:51;;;;;;;13.80;7.83;;;;;;;14.94;100.00;92791.41;1749807;80;20962;-91
2021/09/17 01:37:19;;;;;;;8.90;7.58;;;;;;;14.94;100.00;92785.93;1750092;80;21038;-88
2021/09/17 01:39:46;;;;;;;11.12;7.42;;;;;;;14.93;100.00;92778.33;1750365;79;21122;-91
2021/09/17 01:42:12;;;;;;;13.85;7.92;;;;;;;14.92;100.00;92774.64;1744214;80;21036;-91
2021/09/17 01:44:40;;;;;;;12.80;7.60;;;;;;;14.92;100.00;92770.53;1744297;80;21428;-88
2021/09/17 01:47:07;;;;;;;12.10;8.78;;;;;;;14.95;100.00;92754.61;1753819;80;21591;-93
2021/09/17 01:49:34;;;;;;;10.95;7.90;;;;;;;14.96;100.00;92750.05;1746621;80;20999;-90
2021/09/17 01:52:00;;;;;;;15.70;9.20;;;;;;;14.99;100.00;92738.84;1749017;80;21065;-88
2021/09/17 01:54:27;;;;;;;15.85;8.90;;;;;;;14.96;100.00;92711.72;1757527;80;21035;-91
2021/09/17 01:56:54;;;;;;;9.88;7.15;;;;;;;14.89;100.00;92727.61;1751286;80;21117;-91
2021/09/17 01:59:22;;;;;;;19.50;8.15;;;;;;;14.80;100.00;92728.28;1695250;83;21072;-89
2021/09/17 02:01:48;;;;;;;14.60;8.00;;;;;;;14.75;100.00;92729.59;1757632;80;21048;-90
2021/09/17 02:04:16;;;;;;;9.88;7.80;;;;;;;14.77;100.00;92727.78;1755775;80;21099;-91
2021/09/17 02:06:42;;;;;;;11.33;7.37;;;;;;;14.80;100.00;92723.56;1758358;79;21037;-90
2021/09/17 02:09:11;;;;;;;12.18;8.03;;;;;;;14.83;100.00;92721.17;1760325;80;21164;-93
2021/09/17 02:11:37;;;;;;;13.85;8.20;;;;;;;14.84;100.00;92715.25;1762674;80;20998;-90
2021/09/17 02:14:06;;;;;;;13.60;8.45;;;;;;;14.84;100.00;92725.44;1727592;80;21246;-91
2021/09/17 02:16:33;;;;;;;9.98;8.40;;;;;;;14.85;100.00;92723.61;1751752;80;20978;-93
2021/09/17 02:19:01;;;;;;;14.68;8.73;;;;;;;14.89;100.00;92730.34;1746439;80;21128;-90
2021/09/17 02:21:29;;;;;;;12.30;8.65;;;;;;;14.92;100.00;92722.63;1735524;80;21057;-92
2021/09/17 02:23:57;;;;;;;13.55;8.05;;;;;;;14.94;100.00;92727.84;1756060;80;20943;-91
2021/09/17 02:26:24;;;;;;;9.93;7.25;;;;;;;14.95;100.00;92738.18;1734314;80;21065;-92
2021/09/17 02:28:50;;;;;;;13.85;8.03;;;;;;;14.94;100.00;92741.53;1761906;80;21889;-92
2021/09/17 02:31:17;;;;;;;12.35;7.15;;;;;;;14.94;100.00;92740.77;1717643;81;21106;-92
2021/09/17 02:33:43;;;;;;;10.43;7.42;;;;;;;14.93;100.00;92743.31;1760900;79;21702;-91
2021/09/17 02:36:12;;;;;;;9.83;7.65;;;;;;;14.98;100.00;92735.94;1759040;80;21058;-91
2021/09/17 02:38:39;;;;;;;10.53;7.37;;;;;;;15.00;100.00;92732.14;1697426;81;21032;-92
2021/09/17 02:41:05;;;;;;;9.68;7.25;;;;;;;15.01;100.00;92727.62;1742310;77;21149;-91
2021/09/17 02:43:34;;;;;;;9.88;7.87;;;;;;;14.98;100.00;92723.02;1753087;78;21054;-92
2021/09/17 02:46:01;;;;;;;16.65;8.40;;;;;;;14.94;100.00;92731.95;1757669;79;21047;-91
2021/09/17 02:48:28;;;;;;;9.33;7.72;;;;;;;14.91;100.00;92720.50;1726508;81;20987;-92
2021/09/17 02:50:55;;;;;;;14.35;8.63;;;;;;;14.93;100.00;92726.89;1756512;80;21117;-91
2021/09/17 02:53:21;;;;;;;11.65;8.18;;;;;;;14.94;100.00;92716.89;1760166;80;21372;-88
2021/09/17 02:55:47;;;;;;;8.93;6.85;;;;;;;14.93;100.00;92718.10;1752257;80;21701;-91
2021/09/17 02:58:15;;;;;;;12.13;7.85;;;;;;;14.94;100.00;92705.94;1737447;81;21053;-93
2021/09/17 03:00:42;;;;;;;11.75;8.23;;;;;;;14.90;100.00;92703.16;1731405;80;21034;-91
2021/09/17 03:03:09;;;;;;;14.03;8.38;;;;;;;14.87;100.00;92701.30;1743727;80;21035;-92
2021/09/17 03:05:37;;;;;;;13.10;8.43;;;;;;;14.83;100.00;92695.17;1758383;80;21134;-90
2021/09/17 03:08:05;;;;;;;13.28;8.38;;;;;;;14.77;100.00;92687.49;1762727;80;21238;-92
2021/09/17 03:10:33;;;;;;;11.63;7.85;;;;;;;14.72;100.00;92692.77;1757521;80;21002;-91
2021/09/17 03:13:01;;;;;;;9.10;8.13;;;;;;;14.67;100.00;92698.77;1759094;80;21128;-94
2021/09/17 03:15:29;;;;;;;14.47;9.05;;;;;;;14.67;100.00;92706.98;1720975;81;21161;-87
2021/09/17 03:17:57;;;;;;;11.85;8.98;;;;;;;14.66;100.00;92693.90;1757598;80;21074;-92
2021/09/17 03:20:25;;;;;;;13.90;8.93;;;;;;;14.71;100.00;92692.61;1763241;78;21076;-93
2021/09/17 03:22:53;;;;;;;12.90;7.87;;;;;;;14.85;100.00;92687.27;1763712;79;21042;-91
2021/09/17 03:25:19;;;;;;;13.08;8.88;;;;;;;14.96;100.00;92684.35;1736500;80;21061;-92
2021/09/17 03:27:47;;;;;;;11.95;8.20;;;;;;;15.09;98.57;92681.61;1719794;81;21042;-92
2021/09/17 03:30:13;;;;;;;11.85;8.18;;;;;;;15.25;97.32;92674.61;1767195;80;21104;-92
2021/09/17 03:32:39;;;;;;;15.18;8.38;;;;;;;15.39;96.80;92678.09;1695179;82;21058;-94
2021/09/17 03:35:07;;;;;;;14.65;8.43;;;;;;;15.43;96.15;92671.88;1720278;81;21128;-94
2021/09/17 03:37:35;;;;;;;11.08;7.92;;;;;;;15.48;94.67;92664.45;1711519;81;21114;-88
2021/09/17 03:40:02;;;;;;;9.10;8.15;;;;;;;15.55;94.76;92661.47;1722429;81;21187;-89
2021/09/17 03:42:30;;;;;;;11.48;8.95;;;;;;;15.57;94.16;92661.02;1753469;80;21183;-94
2021/09/17 03:44:57;;;;;;;11.68;8.13;;;;;;;15.55;93.78;92662.23;1757773;80;21033;-91
2021/09/17 03:47:23;;;;;;;13.88;8.30;;;;;;;15.58;93.69;92659.22;1741617;80;21085;-94
2021/09/17 03:49:53;;;;;;;14.87;8.80;;;;;;;15.61;93.32;92658.91;1701330;83;21683;-91
2021/09/17 03:52:19;;;;;;;15.48;8.03;;;;;;;15.66;91.70;92657.78;1760066;80;22908;-91
2021/09/17 03:54:46;;;;;;;15.38;9.63;;;;;;;15.76;92.29;92662.13;1744998;80;21808;-90
2021/09/17 03:57:13;;;;;;;10.43;8.43;;;;;;;15.76;91.91;92653.91;1726339;81;21060;-91
2021/09/17 03:59:39;;;;;;;10.58;8.23;;;;;;;15.73;91.26;92660.27;1689872;83;21151;-92
2021/09/17 04:02:06;;;;;;;11.28;8.00;;;;;;;15.70;91.92;92669.37;1760437;80;21073;-91
2021/09/17 04:04:33;;;;;;;13.08;8.10;;;;;;;15.65;92.39;92662.31;1725999;81;21060;-91
2021/09/17 04:06:59;;;;;;;12.53;8.68;;;;;;;15.54;92.96;92670.30;1770259;79;21105;-90
2021/09/17 04:09:26;;;;;;;12.37;8.08;;;;;;;15.50;93.29;92662.05;1756794;80;21062;-88
2021/09/17 04:11:53;;;;;;;11.22;7.47;;;;;;;15.48;93.35;92665.22;1744950;80;21081;-92
2021/09/17 04:14:19;;;;;;;12.23;7.97;;;;;;;15.48;93.33;92672.06;1720404;81;21033;-92
2021/09/17 04:16:48;;;;;;;12.23;7.55;;;;;;;15.50;93.17;92673.01;1718479;81;21074;-93
2021/09/17 04:19:15;;;;;;;9.70;7.80;;;;;;;15.51;93.24;92673.92;1750412;80;21125;-91
2021/09/17 04:21:45;;;;;;;12.33;8.25;;;;;;;15.53;93.38;92677.58;1721291;81;21031;-92
2021/09/17 04:24:15;;;;;;;11.63;8.25;;;;;;;15.52;93.47;92667.83;1753154;79;21037;-90
2021/09/17 04:26:42;;;;;;;17.12;9.90;;;;;;;15.49;93.66;92674.95;1726623;79;21053;-89
2021/09/17 04:29:08;;;;;;;12.50;7.78;;;;;;;15.49;94.00;92675.56;1687783;83;21047;-91
2021/09/17 04:31:35;;;;;;;12.82;7.78;;;;;;;15.46;94.12;92671.76;1734342;79;22192;-87
2021/09/17 04:34:02;;;;;;;13.75;8.83;;;;;;;15.40;94.51;92681.73;1714059;80;21053;-91
2021/09/17 04:36:29;;;;;;;10.00;8.45;;;;;;;15.37;94.79;92672.27;1756224;80;21092;-91
2021/09/17 04:38:56;;;;;;;15.13;8.65;;;;;;;15.37;94.87;92666.80;1759578;80;21615;-90
2021/09/17 04:41:22;;;;;;;10.25;7.78;;;;;;;15.39;95.00;92673.98;1742064;80;21042;-90
2021/09/17 04:43:50;;;;;;;20.48;8.83;;;;;;;15.41;94.72;92671.55;1726755;81;21140;-89
2021/09/17 04:46:16;;;;;;;14.87;8.30;;;;;;;15.39;94.79;92672.61;1728285;80;22121;-91
2021/09/17 04:48:43;;;;;;;16.67;9.33;;;;;;;15.38;95.14;92666.95;1696786;82;21141;-93
2021/09/17 04:51:10;;;;;;;14.90;8.40;;;;;;;15.36;95.19;92661.92;1704331;81;21049;-93
2021/09/17 04:53:38;;;;;;;18.02;9.13;;;;;;;15.38;95.18;92664.20;1760371;79;20947;-93
2021/09/17 04:56:04;;;;;;;14.35;9.15;;;;;;;15.38;95.13;92659.48;1749170;79;21374;-88
2021/09/17 04:58:31;;;;;;;12.78;8.85;;;;;;;15.34;95.36;92655.34;1744469;79;21040;-88
2021/09/17 05:00:57;;;;;;;10.18;7.83;;;;;;;15.30;95.52;92656.84;1746426;79;22188;-90
2021/09/17 05:03:24;;;;;;;8.70;7.80;;;;;;;15.33;95.72;92658.70;1763465;79;21077;-89
2021/09/17 05:05:53;;;;;;;11.08;8.23;;;;;;;15.39;95.72;92656.94;1738776;80;21692;-90
2021/09/17 05:08:20;;;;;;;13.18;9.18;;;;;;;15.34;95.99;92652.61;1748913;80;22164;-91
2021/09/17 05:10:47;;;;;;;12.20;9.30;;;;;;;15.28;96.51;92651.81;1723413;80;21708;-92
2021/09/17 05:13:14;;;;;;;11.97;8.83;;;;;;;15.29;97.29;92658.81;1682252;83;21134;-90
2021/09/17 05:15:45;;;;;;;14.98;9.28;;;;;;;15.28;97.44;92653.19;1757917;80;21305;-91
2021/09/17 05:18:12;;;;;;;8.48;7.62;;;;;;;15.22;97.98;92663.16;1741373;79;21026;-90
2021/09/17 05:20:39;;;;;;;10.58;8.05;;;;;;;15.19;98.02;92659.17;1701419;80;21066;-87
2021/09/17 05:23:07;;;;;;;11.25;9.63;;;;;;;15.19;98.61;92658.56;1722104;81;21015;-93
2021/09/17 05:25:34;;;;;;;14.35;8.70;;;;;;;15.22;98.61;92656.92;1729992;80;21013;-90
2021/09/17 05:28:02;;;;;;;17.00;8.68;;;;;;;15.29;99.43;92651.97;1721544;80;21143;-89
2021/09/17 05:30:29;;;;;;;11.93;7.97;;;;;;;15.41;99.61;92657.23;1746547;80;21098;-93
2021/09/17 05:32:58;;;;;;;15.38;9.18;;;;;;;15.48;98.57;92652.88;1751359;79;21125;-92
2021/09/17 05:35:27;;;;;;;9.83;7.78;;;;;;;15.51;97.98;92650.62;1751725;80;21108;-92
2021/09/17 05:37:53;;;;;;;13.18;8.65;;;;;;;15.59;98.16;92647.64;1752886;79;21038;-91
2021/09/17 05:40:20;;;;;;;14.10;8.38;;;;;;;15.68;98.55;92647.73;1756304;78;21013;-90
2021/09/17 05:42:46;;;;;;;16.57;9.55;;;;;;;15.81;98.55;92647.08;1764700;79;21042;-91
2021/09/17 05:45:14;;;;;;;9.73;7.65;;;;;;;15.95;98.13;92642.45;1753043;79;21171;-88
2021/09/17 05:47:43;;;;;;;11.43;9.18;;;;;;;16.08;96.96;92637.48;1721800;81;21085;-90
2021/09/17 05:50:10;;;;;;;11.65;9.48;;;;;;;16.15;95.99;92642.09;1746628;80;22192;-90
2021/09/17 05:52:37;;;;;;;11.55;9.63;;;;;;;16.22;96.03;92638.33;1760173;79;21123;-91
2021/09/17 05:55:05;;;;;;;14.10;9.78;;;;;;;16.28;96.12;92635.14;1748168;79;21078;-92
2021/09/17 05:57:31;;;;;;;16.00;10.28;;;;;;;16.35;96.76;92641.73;1698111;80;22050;-92
2021/09/17 05:59:57;;;;;;;19.12;11.20;;;;;;;16.37;96.52;92633.06;1747640;78;21256;-90
2021/09/17 06:02:25;;;;;;;17.42;10.08;;;;;;;16.36;96.52;92632.89;1752278;80;21937;-92
2021/09/17 06:04:55;;;;;;;12.88;8.80;;;;;;;16.36;96.71;92637.80;1689130;83;21102;-88
2021/09/17 06:07:21;;;;;;;10.63;8.98;;;;;;;16.38;95.98;92633.98;1699390;80;21264;-89
2021/09/17 06:09:48;;;;;;;15.20;10.60;;;;;;;16.37;95.73;92635.20;1735755;79;21353;-89
2021/09/17 06:12:14;;;;;;;20.30;12.37;;;;;;;16.38;95.33;92640.83;1759566;78;21058;-91
2021/09/17 06:14:42;;;;;;;15.10;9.15;;;;;;;16.41;94.53;92635.82;1751389;79;21110;-88
2021/09/17 06:17:10;;;;;;;20.32;8.95;;;;;;;16.41;94.11;92639.94;1734266;79;21067;-89
2021/09/17 06:19:37;;;;;;;10.25;8.10;;;;;;;16.43;93.71;92627.89;1695507;82;21605;-92
2021/09/17 06:22:04;;;;;;;14.93;9.40;;;;;;;16.45;93.62;92641.94;1693711;81;21120;-86
2021/09/17 06:24:31;;;;;;;11.78;9.15;;;;;;;16.43;93.45;92628.50;1731347;80;21085;-89
2021/09/17 06:26:59;;;;;;;16.02;12.68;;;;;;;16.42;93.13;92633.23;1702897;81;21611;-89
2021/09/17 06:29:25;;;;;;;15.65;12.13;;;;;;;16.42;94.25;92629.11;1679584;80;21161;-90
2021/09/17 06:31:52;;;;;;;14.75;10.18;;;;;;;16.41;95.00;92630.34;1722065;80;21453;-89
2021/09/17 06:34:19;;;;;;;15.48;9.63;;;;;;;16.42;94.78;92633.23;1747232;79;21086;-88
2021/09/17 06:36:47;;;;;;;14.13;9.30;;;;;;;16.42;93.75;92626.37;1651496;84;21059;-90
2021/09/17 06:39:21;;;;;;;16.60;10.13;;;;;;;16.43;93.32;92629.27;1724217;81;21114;-90
2021/09/17 06:41:45;;;;;;;12.65;9.15;;;;;;;16.45;93.18;92628.83;1716152;80;21065;-90
2021/09/17 06:44:12;;;;;;;16.05;9.55;;;;;;;16.47;93.48;92628.54;1735324;80;21087;-89
2021/09/17 06:46:43;;;;;;;13.95;9.23;;;;;;;16.50;92.60;92620.00;1720966;80;21767;-89
2021/09/17 06:49:10;;;;;;;12.33;8.85;;;;;;;16.52;92.32;92625.81;1752214;80;21066;-91
2021/09/17 06:51:38;;;;;;;13.35;9.83;;;;;;;16.54;92.43;92621.98;1757910;78;21261;-91
2021/09/17 06:54:07;;;;;;;12.95;9.48;;;;;;;16.57;92.63;92623.08;1718503;81;21040;-88
2021/09/17 06:56:34;;;;;;;11.83;9.10;;;;;;;16.58;92.85;92621.23;1748655;80;21021;-89
2021/09/17 06:59:02;;;;;;;14.35;9.20;;;;;;;16.61;93.16;92628.58;1716293;81;21754;-91
2021/09/17 07:01:34;;;;;;;12.10;9.65;;;;;;;16.64;92.72;92627.67;1737541;80;21146;-89
2021/09/17 07:04:01;;;;;;;13.35;9.63;;;;;;;16.68;92.74;92627.53;1738020;80;21516;-90
2021/09/17 07:06:33;;;;;;;17.65;9.83;;;;;;;16.68;92.52;92624.79;1724869;80;21015;-87
2021/09/17 07:08:59;;;;;;;14.50;9.88;;;;;;;16.67;92.70;92619.16;1671971;81;21069;-90
2021/09/17 07:11:27;;;;;;;13.98;9.95;;;;;;;16.69;92.74;92618.08;1715769;80;21136;-88
2021/09/17 07:13:57;;;;;;;11.55;10.35;;;;;;;16.70;92.45;92622.37;1712530;80;21033;-89
2021/09/17 07:16:26;;;;;;;11.83;8.93;;;;;;;16.72;92.39;92619.92;1746002;80;21738;-86
2021/09/17 07:18:54;;;;;;;17.73;9.50;;;;;;;16.74;91.98;92615.55;1713426;81;21065;-90
2021/09/17 07:21:21;;;;;;;15.28;9.23;;;;;;;16.78;92.13;92610.52;1753382;79;21924;-88
2021/09/17 07:23:47;;;;;;;14.40;9.50;;;;;;;16.79;91.59;92612.80;1750511;80;21160;-88
2021/09/17 07:26:15;;;;;;;19.25;10.43;;;;;;;16.82;91.20;92609.77;1756218;79;21666;-88
2021/09/17 07:28:43;;;;;;;16.37;10.23;;;;;;;16.85;91.13;92612.95;1777810;78;21014;-90
2021/09/17 07:31:11;;;;;;;12.55;9.33;;;;;;;16.87;90.70;92618.16;1749439;80;21790;-87
2021/09/17 07:33:38;;;;;;;16.95;11.22;;;;;;;16.90;90.51;92625.48;1712713;80;21984;-89
2021/09/17 07:36:04;;;;;;;15.72;10.78;;;;;;;16.91;90.08;92614.66;1739557;80;21674;-92
2021/09/17 07:38:32;;;;;;;13.22;10.50;;;;;;;16.93;89.53;92613.60;1723994;80;21160;-86
2021/09/17 07:40:59;;;;;;;13.90;10.60;;;;;;;16.97;89.39;92617.58;1711051;81;21061;-87
2021/09/17 07:43:25;;;;;;;17.35;11.22;;;;;;;17.02;89.75;92609.34;1748024;78;20979;-88
2021/09/17 07:45:53;;;;;;;14.00;10.58;;;;;;;17.04;89.83;92602.77;1743029;80;21038;-90
2021/09/17 07:48:21;;;;;;;15.18;8.95;;;;;;;17.05;89.47;92600.95;1749014;80;21533;-86
2021/09/17 07:50:47;;;;;;;16.55;9.23;;;;;;;17.07;89.02;92609.48;1768914;79;21116;-87
2021/09/17 07:59:06;;;;;;;16.35;10.03;;;;;;;17.16;89.85;92597.16;1759720;78;21189;-91
2021/09/17 08:01:33;;;;;;;11.43;9.83;;;;;;;17.20;89.58;92601.13;1764517;79;21088;-90
2021/09/17 08:03:59;;;;;;;16.15;9.50;;;;;;;17.20;89.52;92595.02;1732477;80;21081;-92
2021/09/17 08:06:26;;;;;;;13.03;9.48;;;;;;;17.24;89.72;92595.62;1727615;80;21613;-90
2021/09/17 08:08:54;;;;;;;13.08;9.33;;;;;;;17.22;89.34;92593.17;1749469;79;21028;-89
2021/09/17 08:11:20;;;;;;;13.15;10.23;;;;;;;17.22;89.66;92589.05;1742391;80;21135;-88
2021/09/17 08:13:47;;;;;;;13.90;10.30;;;;;;;17.23;90.40;92588.61;1750223;79;21118;-92
2021/09/17 08:16:13;;;;;;;17.67;10.05;;;;;;;17.24;90.60;92592.87;1734780;80;21078;-87
2021/09/17 08:18:45;;;;;;;18.62;10.80;;;;;;;17.24;91.01;92592.13;1731697;79;21113;-90
2021/09/17 08:21:13;;;;;;;15.03;10.08;;;;;;;17.22;91.61;92588.44;1691790;81;21073;-89
2021/09/17 08:23:39;;;;;;;14.25;10.45;;;;;;;17.20;91.81;92590.89;1719284;81;21589;-89
2021/09/17 08:26:07;;;;;;;16.48;10.75;;;;;;;17.15;92.43;92590.14;1713781;82;21098;-88
2021/09/17 08:28:33;;;;;;;15.80;10.82;;;;;;;17.13;93.53;92588.45;1694391;81;21061;-92
2021/09/17 08:31:03;;;;;;;17.23;11.68;;;;;;;17.10;94.01;92584.47;1708019;79;21049;-88
2021/09/17 08:33:32;;;;;;;16.32;11.10;;;;;;;17.02;94.38;92584.01;1744338;79;22223;-90
2021/09/17 08:36:00;;;;;;;14.95;11.03;;;;;;;16.94;95.47;92574.55;1697994;80;21055;-89
2021/09/17 08:38:29;;;;;;;12.73;9.85;;;;;;;16.89;96.33;92576.53;1740954;80;21845;-89
2021/09/17 08:40:58;;;;;;;12.50;9.60;;;;;;;16.85;96.62;92568.44;1755766;78;21013;-88
2021/09/17 08:43:27;;;;;;;15.72;10.50;;;;;;;16.82;97.10;92572.70;1755542;80;21080;-90
2021/09/17 08:45:55;;;;;;;18.95;15.83;;;;;;;16.79;98.15;92568.88;1744377;79;21039;-88
2021/09/17 08:48:29;;;;;;;15.10;10.90;;;;;;;16.73;98.96;92568.70;1734088;79;21004;-87
2021/09/17 08:50:57;;;;;;;25.30;17.85;;;;;;;16.74;99.25;92557.14;1707536;81;21795;-89
2021/09/17 08:53:27;;;;;;;18.67;13.08;;;;;;;16.74;99.68;92559.88;1706319;81;21392;-90
2021/09/17 08:55:56;;;;;;;17.50;10.60;;;;;;;16.74;99.82;92555.15;1700975;82;21086;-87
2021/09/17 08:58:23;;;;;;;13.35;9.70;;;;;;;16.75;99.53;92551.18;1709702;82;20987;-89
2021/09/17 09:00:58;;;;;;;14.20;10.80;;;;;;;16.74;99.74;92547.53;1693055;82;21023;-88
2021/09/17 09:03:31;;;;;;;9.83;8.15;;;;;;;16.76;100.00;92549.20;1698637;82;21468;-88
2021/09/17 09:08:28;;;;;;;12.03;8.20;;;;;;;16.75;100.00;92546.30;1712526;82;21448;-90
2021/09/17 09:10:56;;;;;;;8.68;7.33;;;;;;;16.74;99.72;92553.02;1716002;80;21035;-88
2021/09/17 09:13:24;;;;;;;7.45;6.65;;;;;;;16.70;98.75;92551.00;1746798;80;21466;-89
2021/09/17 09:15:51;;;;;;;9.43;6.37;;;;;;;16.66;98.94;92548.41;1739210;80;21558;-91
2021/09/17 09:18:24;;;;;;;8.73;6.62;;;;;;;16.63;97.40;92553.42;1739250;80;21347;-88
2021/09/17 09:20:54;;;;;;;11.08;5.50;;;;;;;16.59;96.62;92543.81;1676935;83;21093;-91
2021/09/17 09:23:23;;;;;;;7.85;6.00;;;;;;;16.56;96.49;92537.86;1738439;80;21603;-90
2021/09/17 09:26:05;;;;;;;8.70;5.83;;;;;;;16.51;95.99;92541.94;1684953;82;21090;-90
2021/09/17 09:28:42;;;;;;;6.90;5.58;;;;;;;16.46;95.85;92535.69;1730944;80;22117;-89
2021/09/17 09:31:18;;;;;;;10.18;6.20;;;;;;;16.43;96.46;92530.48;1758816;79;21075;-87
2021/09/17 09:33:48;;;;;;;7.47;5.50;;;;;;;16.41;96.82;92539.80;1761992;79;21060;-90
2021/09/17 09:36:17;;;;;;;7.87;5.30;;;;;;;16.40;96.17;92527.91;1753507;79;21045;-89
2021/09/17 09:38:54;;;;;;;7.80;4.78;;;;;;;16.40;95.92;92527.30;1766892;79;21108;-88
2021/09/17 09:41:23;;;;;;;9.13;5.20;;;;;;;16.42;96.06;92535.83;1762293;79;21892;-88
2021/09/17 09:44:05;;;;;;;8.75;4.87;;;;;;;16.45;95.74;92535.54;1765565;79;21085;-87
2021/09/17 09:46:45;;;;;;;9.98;5.53;;;;;;;16.46;95.68;92537.81;1710115;80;21508;-89
2021/09/17 09:49:22;;;;;;;10.20;5.62;;;;;;;16.47;95.24;92539.95;1709281;82;21081;-90
2021/09/17 09:51:59;;;;;;;9.03;4.60;;;;;;;16.44;95.69;92534.02;1737665;80;21272;-89
2021/09/17 09:54:30;;;;;;;6.30;4.75;;;;;;;16.42;96.06;92539.94;1748582;80;21037;-88
2021/09/17 09:57:00;;;;;;;9.73;4.25;;;;;;;16.39;96.81;92533.23;1727213;80;21168;-91
2021/09/17 09:59:34;;;;;;;4.05;3.65;;;;;;;16.38;97.34;92531.70;1740228;79;21020;-89
2021/09/17 10:02:04;;;;;;;4.33;3.37;;;;;;;16.35;97.51;92533.37;1762250;79;21065;-92
2021/09/17 10:04:32;;;;;;;6.75;3.80;;;;;;;16.33;98.20;92533.07;1757794;79;21062;-88
2021/09/17 10:07:07;;;;;;;9.33;5.45;;;;;;;16.31;99.33;92531.37;1731178;80;21887;-92
2021/09/17 10:09:39;;;;;;;6.00;3.45;;;;;;;16.31;99.55;92534.13;1753959;79;21388;-91
2021/09/17 10:12:09;;;;;;;3.72;3.37;;;;;;;16.31;99.64;92523.14;1742614;79;21102;-89
2021/09/17 10:14:38;;;;;;;3.40;3.08;;;;;;;16.31;99.87;92514.16;1753969;79;21075;-88
2021/09/17 10:17:13;;;;;;;3.85;3.30;;;;;;;16.30;100.00;92519.50;1706235;79;21427;-89
2021/09/17 10:19:46;;;;;;;4.53;3.02;;;;;;;16.30;100.00;92512.64;1767727;79;21464;-89
2021/09/17 10:22:34;;;;;;;4.58;3.52;;;;;;;16.31;100.00;92510.80;1739325;80;22048;-93
2021/09/17 10:25:22;;;;;;;5.80;4.70;;;;;;;16.33;100.00;92511.13;1748155;80;21013;-89
2021/09/17 10:28:14;;;;;;;5.25;4.62;;;;;;;16.36;100.00;92497.09;1748408;80;21255;-92
2021/09/17 10:30:41;;;;;;;10.63;5.78;;;;;;;16.36;100.00;92503.95;1718361;81;21081;-88
2021/09/17 10:35:55;;;;;;;8.85;5.20;;;;;;;16.38;100.00;92496.80;1714498;82;21122;-89
2021/09/17 10:38:27;;;;;;;5.55;4.67;;;;;;;16.40;100.00;92497.12;1721318;81;21076;-88
2021/09/17 10:41:07;;;;;;;8.48;4.90;;;;;;;16.41;100.00;92493.77;1753045;79;21078;-88
2021/09/17 10:43:46;;;;;;;6.75;4.90;;;;;;;16.41;100.00;92497.88;1739735;79;21512;-88
2021/09/17 10:46:28;;;;;;;5.62;5.00;;;;;;;16.42;100.00;92494.67;1733702;80;22146;-89
2021/09/17 10:48:59;;;;;;;6.33;4.62;;;;;;;16.43;100.00;92498.17;1744623;79;21185;-89
2021/09/17 10:51:36;;;;;;;8.60;5.70;;;;;;;16.42;100.00;92497.42;1720662;80;21110;-89
2021/09/17 10:54:23;;;;;;;8.90;5.20;;;;;;;16.40;100.00;92488.89;1764848;79;21094;-89
2021/09/17 10:56:54;;;;;;;8.80;5.28;;;;;;;16.40;100.00;92488.89;1724112;80;22327;-90
2021/09/17 10:59:30;;;;;;;;;;;;;;;16.39;100.00;92485.97;1753781;79;21728;-88
2021/09/17 11:02:03;;;;;;;11.80;6.28;;;;;;;16.40;100.00;92487.52;1708099;80;20180;-88
2021/09/17 11:04:38;;;;;;;5.60;5.03;;;;;;;16.40;100.00;92492.25;1733939;78;21065;-89
2021/09/17 11:07:27;;;;;;;4.80;3.95;;;;;;;16.40;100.00;92492.25;1712617;81;21535;-90
2021/09/17 11:09:55;;;;;;;6.58;4.80;;;;;;;16.38;100.00;92481.71;1759554;79;21703;-89
2021/09/17 11:12:25;;;;;;;6.03;5.12;;;;;;;16.35;100.00;92475.75;1785951;78;21101;-90
2021/09/17 11:15:16;;;;;;;4.95;4.37;;;;;;;16.38;100.00;92478.21;1760985;79;21069;-90
2021/09/17 11:17:52;;;;;;;5.95;4.30;;;;;;;16.41;100.00;92471.82;1698325;80;21061;-92
2021/09/17 11:20:27;;;;;;;6.30;4.40;;;;;;;16.43;100.00;92464.64;1721088;80;21054;-89
2021/09/17 11:23:07;;;;;;;7.37;5.13;;;;;;;16.44;100.00;92469.55;1686543;83;21066;-92
2021/09/17 11:25:41;;;;;;;7.15;4.22;;;;;;;16.42;100.00;92462.36;1719837;81;22569;-90
2021/09/17 11:28:28;;;;;;;;;;;;;;;16.40;100.00;92461.46;1722324;81;21569;-91
2021/09/17 11:31:13;;;;;;;5.08;4.40;;;;;;;16.35;100.00;92455.18;1718616;81;20223;-89
2021/09/17 11:33:41;;;;;;;7.95;5.45;;;;;;;16.31;100.00;92446.34;1685191;83;21120;-91
2021/09/17 11:36:10;;;;;;;7.08;3.92;;;;;;;16.30;100.00;92443.45;1752424;80;21195;-92
2021/09/17 11:38:37;;;;;;;4.87;3.77;;;;;;;16.27;100.00;92449.23;1726692;80;21663;-91
2021/09/17 11:41:05;;;;;;;3.77;3.47;;;;;;;16.20;100.00;92437.78;1737367;80;21025;-89